メインページ
METAR-TAF:

METAR-TAF

空港 :

エセンボーア国際空港

アンカラ-エセンボーア, トルコ

緯度: 40-07N, 経度: 032-59E, 海抜: 953m

現時点の気象観測

当レポートは20分前の04:20(UTC)に作成
変向風 2kt
気温 -1°C
湿度 74%
気圧 1018 hPa
視程10km以上
1,500メートル以下は雲なし、積乱雲なし

METAR: LTAC 220420Z VRB02KT CAVOK M01/M05 Q1018 NOSIG RMK RWY21L VRB02KT RWY03L VRB02KT RWY21R 09002KT

時間: 07:40 (04:40 UTC)

予報

当レポートは6時間0分前の22:40(UTC)に作成
予報は22日の 00時(UTC)から 22日の 24時(UTC)まで有効
変向風 2kt
視程10km以上
1,500メートル以下は雲なし、積乱雲なし
22日の 06時(UTC)から 22日の 09時(UTC)まで徐々に
高度4000ftの雲は散在している

TAF: LTAC 212240Z 2200/2224 VRB02KT CAVOK BECMG 2206/2209 SCT040

4,000以上の空港の気象観測と天気予報(METAR報とTAF報)

利用可能な観測所は地図上に黄色い丸と赤い丸で示す。

丸の上にカーソルを重ねると観測所名を参照できる。

次にクリックすると気象観測と天気予報を参照できる。

マップの切り替え:黒色「×」印の緑ボタンをクリックして拡大、「-」印の緑ボタンをクリックして縮小、緑色の三角印をクリックして隣りの地図に切り替え


METAR-TAF: